Marin-707 — 9GDT — position and weather

sailwx.info

Track history (hours):
 
Tides and Currents Weather Stations Pressure Air Temp Water Temp Dewpoint Dewpoint Depression Visibility Wind Speed Wind Dir Waves Ship Positions

Marin-707

Last reported at 2018-Jun-24 20:11 UTC. Time now 2018-Jun-25 03:44 UTC.
Position N 05°24' E 000°27'.

Length 60 m.

MMSI: 627880000.

Date/timePositionNaut miles runAvg speedWind from/ knotsBaromVisibWave heightAir tempDewpointWater temp
2018-Jun-24 20:11N 05°24' E 000°27'312.4
2018-Jun-24 19:57N 05°23' E 000°24'612.5
2018-Jun-24 19:30N 05°22' E 000°19'612.4
2018-Jun-24 19:00N 05°21' E 000°13'612.4
2018-Jun-24 18:31N 05°19' E 000°07'612.2
2018-Jun-24 18:01N 05°18' E 000°01'510.1
2018-Jun-24 17:30N 05°18' W 000°05'611.8
2018-Jun-24 16:58N 05°17' W 000°11'23 9.5
2018-Jun-24 14:34N 05°15' W 000°33'1 1.4
2018-Jun-24 14:03N 05°15' W 000°33'0 3.2
2018-Jun-24 14:00N 05°15' W 000°33'1 1.4
2018-Jun-24 13:30N 05°15' W 000°33'0 0.7
2018-Jun-24 13:00N 05°15' W 000°33'0 0.3
2018-Jun-24 12:30N 05°15' W 000°33'5 7.8
2018-Jun-24 11:55N 05°18' W 000°30'3 1.4
2018-Jun-24 09:38N 05°17' W 000°33'7 2.5
2018-Jun-24 06:42N 05°15' W 000°40'5 6.6
2018-Jun-24 05:58N 05°15' W 000°35'25 9.3
2018-Jun-24 03:15N 05°20' W 000°10'2 9.5
2018-Jun-24 03:00N 05°20' W 000°08'5 9.4
2018-Jun-24 02:30N 05°20' W 000°03'5 9.4
2018-Jun-24 01:59N 05°19' E 000°02'5 9.5
2018-Jun-24 01:26N 05°19' E 000°07'4 9.5
2018-Jun-24 00:59N 05°19' E 000°12'5 9.3
2018-Jun-24 00:28N 05°19' E 000°16'  
2018-Jun-21 20:18N 05°13' E 000°21'411.1
2018-Jun-21 19:58N 05°13' E 000°17'511.2
2018-Jun-21 19:30N 05°13' E 000°12'611.1
2018-Jun-21 18:57N 05°13' E 000°06'611.4
2018-Jun-21 18:28N 05°12' E 000°00'511.2
2018-Jun-21 18:00N 05°12' W 000°05'4 0.2
2018-Jun-21 01:41N 05°15' W 000°07'2 9.1
2018-Jun-21 01:30N 05°14' W 000°05'8 9.1
2018-Jun-21 00:34N 05°14' E 000°03'1 8.8
2018-Jun-21 00:30N 05°14' E 000°04'6 8.9
2018-Jun-20 23:53N 05°15' E 000°09'  
2018-Jun-18 17:12N 05°17' E 000°22'211.2
2018-Jun-18 16:59N 05°17' E 000°20'2 3.8
2018-Jun-18 16:25N 05°17' E 000°18'3 7.2
2018-Jun-18 16:01N 05°17' E 000°15'711.7
2018-Jun-18 15:27N 05°17' E 000°08'511.7
2018-Jun-18 15:00N 05°17' E 000°03'611.7
2018-Jun-18 14:30N 05°17' W 000°03'711.6
2018-Jun-18 13:54N 05°16' W 000°10'11 0.4
2018-Jun-17 10:10N 05°25' W 000°18'2 9.9
2018-Jun-17 09:59N 05°25' W 000°16'6 9.9
2018-Jun-17 09:24N 05°27' W 000°10'5 9.9
2018-Jun-17 08:53N 05°29' W 000°05'4 9.9
2018-Jun-17 08:29N 05°30' W 000°02'510.0
2018-Jun-17 08:00N 05°32' E 000°02'5 9.9
2018-Jun-17 07:30N 05°34' E 000°07'5 9.9
2018-Jun-17 07:00N 05°36' E 000°12'5 9.7
2018-Jun-17 06:30N 05°38' E 000°16'15 0.5
2018-Jun-15 22:00N 05°25' E 000°24'7 1.2
2018-Jun-15 16:37N 05°26' E 000°17'110.3
2018-Jun-15 16:31N 05°26' E 000°16'5 9.4
2018-Jun-15 16:00N 05°23' E 000°12'3 5.4
2018-Jun-15 15:30N 05°21' E 000°10'4 7.8
2018-Jun-15 15:00N 05°18' E 000°08'3 5.1
2018-Jun-15 14:24N 05°15' E 000°07'0 0.9
2018-Jun-15 13:59N 05°15' E 000°07'510.1
2018-Jun-15 13:30N 05°17' E 000°03'3 5.1
2018-Jun-15 12:51N 05°15' E 000°00'4 9.7
2018-Jun-15 12:25N 05°15' W 000°04'22 2.9
2018-Jun-15 04:48N 05°23' W 000°25'0 0.0
2018-Jun-15 03:14N 05°23' W 000°25'0 0.0
2018-Jun-15 02:49N 05°23' W 000°25'0 0.0
2018-Jun-15 02:30N 05°23' W 000°25'  
Track history (hours):
 
Tides and Currents Weather Stations Pressure Air Temp Water Temp Dewpoint Dewpoint Depression Visibility Wind Speed Wind Dir Waves Ship Positions

Marin-707

Last reported at 2018-Jun-24 20:11 UTC. Time now 2018-Jun-25 03:44 UTC.
Position N 05°24' E 000°27'.

Length 60 m.

MMSI: 627880000.

Date/timePositionNaut miles runAvg speedWind from/ knotsBaromVisibWave heightAir tempDewpointWater temp
2018-Jun-24 20:11N 05°24' E 000°27'312.4
2018-Jun-24 19:57N 05°23' E 000°24'612.5
2018-Jun-24 19:30N 05°22' E 000°19'612.4
2018-Jun-24 19:00N 05°21' E 000°13'612.4
2018-Jun-24 18:31N 05°19' E 000°07'612.2
2018-Jun-24 18:01N 05°18' E 000°01'510.1
2018-Jun-24 17:30N 05°18' W 000°05'611.8
2018-Jun-24 16:58N 05°17' W 000°11'23 9.5
2018-Jun-24 14:34N 05°15' W 000°33'1 1.4
2018-Jun-24 14:03N 05°15' W 000°33'0 3.2
2018-Jun-24 14:00N 05°15' W 000°33'1 1.4
2018-Jun-24 13:30N 05°15' W 000°33'0 0.7
2018-Jun-24 13:00N 05°15' W 000°33'0 0.3
2018-Jun-24 12:30N 05°15' W 000°33'5 7.8
2018-Jun-24 11:55N 05°18' W 000°30'3 1.4
2018-Jun-24 09:38N 05°17' W 000°33'7 2.5
2018-Jun-24 06:42N 05°15' W 000°40'5 6.6
2018-Jun-24 05:58N 05°15' W 000°35'25 9.3
2018-Jun-24 03:15N 05°20' W 000°10'2 9.5
2018-Jun-24 03:00N 05°20' W 000°08'5 9.4
2018-Jun-24 02:30N 05°20' W 000°03'5 9.4
2018-Jun-24 01:59N 05°19' E 000°02'5 9.5
2018-Jun-24 01:26N 05°19' E 000°07'4 9.5
2018-Jun-24 00:59N 05°19' E 000°12'5 9.3
2018-Jun-24 00:28N 05°19' E 000°16'  
2018-Jun-21 20:18N 05°13' E 000°21'411.1
2018-Jun-21 19:58N 05°13' E 000°17'511.2
2018-Jun-21 19:30N 05°13' E 000°12'611.1
2018-Jun-21 18:57N 05°13' E 000°06'611.4
2018-Jun-21 18:28N 05°12' E 000°00'511.2
2018-Jun-21 18:00N 05°12' W 000°05'4 0.2
2018-Jun-21 01:41N 05°15' W 000°07'2 9.1
2018-Jun-21 01:30N 05°14' W 000°05'8 9.1
2018-Jun-21 00:34N 05°14' E 000°03'1 8.8
2018-Jun-21 00:30N 05°14' E 000°04'6 8.9
2018-Jun-20 23:53N 05°15' E 000°09'  
2018-Jun-18 17:12N 05°17' E 000°22'211.2
2018-Jun-18 16:59N 05°17' E 000°20'2 3.8
2018-Jun-18 16:25N 05°17' E 000°18'3 7.2
2018-Jun-18 16:01N 05°17' E 000°15'711.7
2018-Jun-18 15:27N 05°17' E 000°08'511.7
2018-Jun-18 15:00N 05°17' E 000°03'611.7
2018-Jun-18 14:30N 05°17' W 000°03'711.6
2018-Jun-18 13:54N 05°16' W 000°10'11 0.4
2018-Jun-17 10:10N 05°25' W 000°18'2 9.9
2018-Jun-17 09:59N 05°25' W 000°16'6 9.9
2018-Jun-17 09:24N 05°27' W 000°10'5 9.9
2018-Jun-17 08:53N 05°29' W 000°05'4 9.9
2018-Jun-17 08:29N 05°30' W 000°02'510.0
2018-Jun-17 08:00N 05°32' E 000°02'5 9.9
2018-Jun-17 07:30N 05°34' E 000°07'5 9.9
2018-Jun-17 07:00N 05°36' E 000°12'5 9.7
2018-Jun-17 06:30N 05°38' E 000°16'15 0.5
2018-Jun-15 22:00N 05°25' E 000°24'7 1.2
2018-Jun-15 16:37N 05°26' E 000°17'110.3
2018-Jun-15 16:31N 05°26' E 000°16'5 9.4
2018-Jun-15 16:00N 05°23' E 000°12'3 5.4
2018-Jun-15 15:30N 05°21' E 000°10'4 7.8
2018-Jun-15 15:00N 05°18' E 000°08'3 5.1
2018-Jun-15 14:24N 05°15' E 000°07'0 0.9
2018-Jun-15 13:59N 05°15' E 000°07'510.1
2018-Jun-15 13:30N 05°17' E 000°03'3 5.1
2018-Jun-15 12:51N 05°15' E 000°00'4 9.7
2018-Jun-15 12:25N 05°15' W 000°04'22 2.9
2018-Jun-15 04:48N 05°23' W 000°25'0 0.0
2018-Jun-15 03:14N 05°23' W 000°25'0 0.0
2018-Jun-15 02:49N 05°23' W 000°25'0 0.0
2018-Jun-15 02:30N 05°23' W 000°25'  

Dump ship's entire track history